sensor_id;sensor_type;location;lat;lon;timestamp;temperature;humidity
32428;DHT22;18882;50.952;4.366;2024-03-23T00:55:33;8.20;99.90
32428;DHT22;18882;50.952;4.366;2024-03-23T00:59:11;8.30;99.90
32428;DHT22;18882;50.952;4.366;2024-03-23T01:02:36;8.40;99.90
32428;DHT22;18882;50.952;4.366;2024-03-23T01:05:49;8.40;99.90
32428;DHT22;18882;50.952;4.366;2024-03-23T01:16:02;8.50;99.90
32428;DHT22;18882;50.952;4.366;2024-03-23T01:19:03;8.50;99.90
32428;DHT22;18882;50.952;4.366;2024-03-23T01:32:33;8.40;99.90
32428;DHT22;18882;50.952;4.366;2024-03-23T01:39:32;8.00;99.90
32428;DHT22;18882;50.952;4.366;2024-03-23T01:46:22;7.90;99.90
32428;DHT22;18882;50.952;4.366;2024-03-23T02:09:19;7.90;99.90
32428;DHT22;18882;50.952;4.366;2024-03-23T02:12:44;8.10;99.90
32428;DHT22;18882;50.952;4.366;2024-03-23T02:16:00;8.10;99.90
32428;DHT22;18882;50.952;4.366;2024-03-23T02:19:05;7.90;99.90
32428;DHT22;18882;50.952;4.366;2024-03-23T02:22:07;8.00;99.90
32428;DHT22;18882;50.952;4.366;2024-03-23T02:25:19;8.10;99.90
32428;DHT22;18882;50.952;4.366;2024-03-23T02:31:28;8.10;99.90
32428;DHT22;18882;50.952;4.366;2024-03-23T02:34:24;8.20;99.90
32428;DHT22;18882;50.952;4.366;2024-03-23T02:37:52;8.20;99.90
32428;DHT22;18882;50.952;4.366;2024-03-23T02:41:16;8.20;99.90
32428;DHT22;18882;50.952;4.366;2024-03-23T02:44:10;8.20;99.90
32428;DHT22;18882;50.952;4.366;2024-03-23T02:50:39;8.20;99.90
32428;DHT22;18882;50.952;4.366;2024-03-23T02:53:28;8.30;99.90
32428;DHT22;18882;50.952;4.366;2024-03-23T02:57:07;8.30;99.90
32428;DHT22;18882;50.952;4.366;2024-03-23T03:00:51;8.30;99.90
32428;DHT22;18882;50.952;4.366;2024-03-23T03:03:40;8.30;99.90
32428;DHT22;18882;50.952;4.366;2024-03-23T03:06:34;8.30;99.90
32428;DHT22;18882;50.952;4.366;2024-03-23T03:09:46;8.30;99.90
32428;DHT22;18882;50.952;4.366;2024-03-23T03:12:33;8.20;99.90
32428;DHT22;18882;50.952;4.366;2024-03-23T03:18:36;8.20;99.90
32428;DHT22;18882;50.952;4.366;2024-03-23T03:25:04;8.20;99.90
32428;DHT22;18882;50.952;4.366;2024-03-23T07:23:17;7.60;99.90
32428;DHT22;18882;50.952;4.366;2024-03-23T07:25:55;7.60;99.90
32428;DHT22;18882;50.952;4.366;2024-03-23T08:32:21;10.40;99.90
32428;DHT22;18882;50.952;4.366;2024-03-23T08:34:54;10.30;99.90
32428;DHT22;18882;50.952;4.366;2024-03-23T08:37:42;10.20;99.90
32428;DHT22;18882;50.952;4.366;2024-03-23T08:40:40;10.00;99.90
32428;DHT22;18882;50.952;4.366;2024-03-23T08:43:14;9.60;99.90
32428;DHT22;18882;50.952;4.366;2024-03-23T14:09:44;10.30;99.90
32428;DHT22;18882;50.952;4.366;2024-03-23T14:12:14;10.50;99.90
32428;DHT22;18882;50.952;4.366;2024-03-23T14:14:50;10.80;99.90
32428;DHT22;18882;50.952;4.366;2024-03-23T14:17:19;10.90;99.90
32428;DHT22;18882;50.952;4.366;2024-03-23T14:19:51;10.80;99.90
32428;DHT22;18882;50.952;4.366;2024-03-23T15:56:16;11.00;99.90
32428;DHT22;18882;50.952;4.366;2024-03-23T15:58:43;11.00;99.90
32428;DHT22;18882;50.952;4.366;2024-03-23T16:01:11;11.00;99.90
32428;DHT22;18882;50.952;4.366;2024-03-23T16:03:51;11.00;99.90
32428;DHT22;18882;50.952;4.366;2024-03-23T16:06:32;11.00;99.90
32428;DHT22;18882;50.952;4.366;2024-03-23T16:08:58;11.00;99.90
32428;DHT22;18882;50.952;4.366;2024-03-23T16:11:30;10.90;99.90
32428;DHT22;18882;50.952;4.366;2024-03-23T16:13:58;11.00;99.90
32428;DHT22;18882;50.952;4.366;2024-03-23T16:16:28;11.00;99.90
32428;DHT22;18882;50.952;4.366;2024-03-23T16:18:55;11.00;99.90
32428;DHT22;18882;50.952;4.366;2024-03-23T16:21:34;10.90;99.90
32428;DHT22;18882;50.952;4.366;2024-03-23T16:24:23;10.90;99.90
32428;DHT22;18882;50.952;4.366;2024-03-23T16:26:50;10.80;99.90
32428;DHT22;18882;50.952;4.366;2024-03-23T20:27:39;6.30;99.90
32428;DHT22;18882;50.952;4.366;2024-03-23T20:30:10;6.30;99.90
32428;DHT22;18882;50.952;4.366;2024-03-23T20:32:56;6.40;99.90
32428;DHT22;18882;50.952;4.366;2024-03-23T20:35:27;6.40;99.90
32428;DHT22;18882;50.952;4.366;2024-03-23T20:37:57;6.40;99.90
32428;DHT22;18882;50.952;4.366;2024-03-23T20:40:25;6.30;99.90
32428;DHT22;18882;50.952;4.366;2024-03-23T20:42:52;6.20;99.90
32428;DHT22;18882;50.952;4.366;2024-03-23T20:45:30;6.10;99.90
32428;DHT22;18882;50.952;4.366;2024-03-23T20:48:19;6.10;99.90
32428;DHT22;18882;50.952;4.366;2024-03-23T20:51:01;6.10;99.90
32428;DHT22;18882;50.952;4.366;2024-03-23T20:53:36;6.20;99.90
32428;DHT22;18882;50.952;4.366;2024-03-23T20:56:16;6.20;99.90
32428;DHT22;18882;50.952;4.366;2024-03-23T20:59:03;6.30;99.90
32428;DHT22;18882;50.952;4.366;2024-03-23T21:01:38;6.30;99.90
32428;DHT22;18882;50.952;4.366;2024-03-23T21:04:14;6.40;99.90
32428;DHT22;18882;50.952;4.366;2024-03-23T21:06:42;6.40;99.90
